Flight Track Log - Related Links

Times and Time Zones

All times are in EDT time to prevent confusion due to time zone crossing. See the UAL156 flight status page for this flight to view local times or setup timezone preferences in your user account.

Time Position Orientation Groundspeed Altitude Reporting Facility
EDT Latitude Longitude Course Direction KTS MPH feet Rate Location/Type
Sat 02:09:07 PM 47.4179 -122.3120 181° South 177 204 2,000  Level FlightAware ADS-B
Sat 02:09:15 PM 47.4110 -122.3120 181° South 190 219 2,100 1,125 Climbing FlightAware ADS-B
Sat 02:09:23 PM 47.4045 -122.3120 178° South 199 229 2,300 2,000 Climbing FlightAware ADS-B
Sat 02:09:36 PM 47.3920 -122.3110 176° South 208 239 2,800 2,880 Climbing FlightAware ADS-B
Sat 02:09:48 PM 47.3806 -122.3100 178° South 206 237 3,500 3,333 Climbing FlightAware ADS-B
Sat 02:09:54 PM 47.3750 -122.3100 177° South 206 237 3,800 2,667 Climbing FlightAware ADS-B
Sat 02:09:57 PM 47.3719 -122.3090 173° South 209 241 3,900 2,571 Climbing FlightAware ADS-B
Sat 02:10:01 PM 47.3676 -122.3080 168° South 214 246 4,100 2,250 Climbing FlightAware ADS-B
Sat 02:10:05 PM 47.3642 -122.3060 161° South 221 254 4,200 1,500 Climbing FlightAware ADS-B
Sat 02:10:09 PM 47.3608 -122.3030 153° Southeast 229 264 4,300 1,714 Climbing FlightAware ADS-B
Sat 02:10:12 PM 47.3579 -122.3010 147° Southeast 232 267 4,400 2,000 Climbing FlightAware ADS-B
Sat 02:10:15 PM 47.3546 -122.2970 144° Southeast 238 274 4,500 2,526 Climbing FlightAware ADS-B
Sat 02:10:31 PM 47.3406 -122.2830 145° Southeast 244 281 5,200 3,000 Climbing FlightAware ADS-B
Sat 02:10:35 PM 47.3363 -122.2780 144° Southeast 241 277 5,500 4,000 Climbing FlightAware ADS-B
Sat 02:10:40 PM 47.3323 -122.2730 140° Southeast 239 275 5,800 4,000 Climbing FlightAware ADS-B
Sat 02:10:44 PM 47.3295 -122.2690 134° Southeast 239 275 6,100 3,750 Climbing FlightAware ADS-B
Sat 02:10:48 PM 47.3269 -122.2640 128° Southeast 241 277 6,300 3,000 Climbing FlightAware ADS-B
Sat 02:10:52 PM 47.3245 -122.2580 122° Southeast 246 283 6,500 3,429 Climbing FlightAware ADS-B
Sat 02:10:55 PM 47.3226 -122.2520 115° Southeast 250 288 6,700 2,667 Climbing FlightAware ADS-B
Sat 02:11:01 PM 47.3207 -122.2430 107° East 253 291 6,900 2,400 Climbing FlightAware ADS-B
Sat 02:11:05 PM 47.3198 -122.2370 101° East 257 296 7,100 3,429 Climbing FlightAware ADS-B
Sat 02:11:08 PM 47.3194 -122.2300 96° East 260 299 7,300 2,571 Climbing FlightAware ADS-B
Sat 02:11:12 PM 47.3194 -122.2240 92° East 263 303 7,400 2,250 Climbing FlightAware ADS-B
Sat 02:11:16 PM 47.3196 -122.2170 87° East 268 308 7,600 3,000 Climbing FlightAware ADS-B
Sat 02:11:20 PM 47.3202 -122.2100 83° East 272 313 7,800 2,571 Climbing FlightAware ADS-B
Sat 02:11:23 PM 47.3210 -122.2040 80° East 274 315 7,900 3,000 Climbing FlightAware ADS-B
Sat 02:11:30 PM 47.3231 -122.1900 76° East 278 320 8,300 3,000 Climbing FlightAware ADS-B
Sat 02:11:43 PM 47.3281 -122.1660 72° East 285 328 8,900 2,000 Climbing FlightAware ADS-B
Sat 02:11:54 PM 47.3328 -122.1450 71° East 288 331 9,100 500 Climbing FlightAware ADS-B
Sat 02:12:07 PM 47.3389 -122.1210 69° East 290 334 9,100  Level FlightAware ADS-B
Sat 02:12:23 PM 47.3465 -122.0930 69° East 289 333 9,100 387 Level FlightAware ADS-B
Sat 02:12:38 PM 47.3533 -122.0650 71° East 293 337 9,300 1,600 Climbing FlightAware ADS-B
Sat 02:12:53 PM 47.3599 -122.0360 71° East 294 338 9,900 1,935 Climbing FlightAware ADS-B
Sat 02:13:09 PM 47.3670 -122.0050 72° East 310 357 10,300 1,224 Climbing FlightAware ADS-B
Sat 02:13:42 PM 47.3822 -121.9340 72° East 337 388 10,900 1,395 Climbing FlightAware ADS-B
Sat 02:13:52 PM 47.3867 -121.9130 72° East 355 409 11,300 2,600 Climbing FlightAware ADS-B (CYVR)
Sat 02:14:12 PM 47.3970 -121.8640 73° East 360 414 12,200 2,160 Climbing FlightAware ADS-B
Sat 02:14:42 PM 47.4133 -121.7920 71° East 378 435 13,100 1,953 Climbing FlightAware ADS-B
Sat 02:14:55 PM 47.4203 -121.7600 72° East 382 440 13,600 2,077 Climbing FlightAware ADS-B
Sat 02:15:08 PM 47.4257 -121.7280 79° East 385 443 14,000 2,087 Climbing FlightAware ADS-B
Sat 02:15:18 PM 47.4282 -121.7010 84° East 382 440 14,400 2,308 Climbing FlightAware ADS-B
Sat 02:15:34 PM 47.4289 -121.6610 91° East 380 437 15,000 2,372 Climbing FlightAware ADS-B
Sat 02:16:01 PM 47.4279 -121.5900 91° East 389 448 16,100 2,318 Climbing FlightAware ADS-B
Sat 02:16:18 PM 47.4273 -121.5476 91° East 395 455 16,700 2,129 Climbing FlightAware ADS-B (CYVR)
Sat 02:16:32 PM 47.4267 -121.5060 91° East 399 459 17,200 2,591 Climbing FlightAware ADS-B
Sat 02:17:02 PM 47.4254 -121.4240 91° East 399 459 18,600 2,600 Climbing FlightAware ADS-B
Sat 02:17:32 PM 47.4242 -121.3430 91° East 400 460 19,800 2,609 Climbing FlightAware ADS-B
Sat 02:17:48 PM 47.4262 -121.4752 91° East 400 460 20,600 1,800 Climbing FlightAware ADS-B (CYVR)
Sat 02:18:02 PM 47.4228 -121.2590 91° East 411 473 20,700 1,174 Climbing FlightAware ADS-B
Sat 02:18:34 PM 47.4214 -121.1690 91° East 424 488 21,500 1,467 Climbing FlightAware ADS-B
Sat 02:18:47 PM 47.4207 -121.1314 92° East 428 493 21,800 1,742 Climbing FlightAware ADS-B (CYVR)
Sat 02:19:05 PM 47.4198 -121.0780 91° East 432 497 22,400 1,959 Climbing FlightAware ADS-B
Sat 02:19:36 PM 47.4181 -120.9850 92° East 438 504 23,400 1,818 Climbing FlightAware ADS-B
Sat 02:19:38 PM 47.4207 -121.1314 92° East 438 504 23,400 1,742 Level FlightAware ADS-B (CYVR)
Sat 02:20:07 PM 47.4164 -120.8930 92° East 441 507 24,300 1,831 Climbing FlightAware ADS-B
Sat 02:20:37 PM 47.4144 -120.8020 92° East 446 513 25,200 1,475 Climbing FlightAware ADS-B
Sat 02:21:08 PM 47.4124 -120.7070 92° East 454 522 25,800 1,220 Climbing FlightAware ADS-B
Sat 02:21:36 PM 47.4105 -120.6173 92° East 463 533 26,400 1,235 Climbing FlightAware ADS-B (CYVR)
Sat 02:21:42 PM 47.4101 -120.5990 92° East 463 533 26,500 973 Climbing FlightAware ADS-B
Sat 02:22:13 PM 47.4078 -120.5000 92° East 476 548 27,000 1,132 Climbing FlightAware ADS-B
Sat 02:22:35 PM 47.4047 -120.4290 96° East 476 548 27,500 1,364 Climbing FlightAware ADS-B
Sat 02:22:57 PM 47.3958 -120.3580 103° East 470 541 28,000 1,444 Climbing FlightAware ADS-B
Sat 02:23:29 PM 47.3792 -120.2610 104° East 468 539 28,800 1,452 Climbing FlightAware ADS-B
Sat 02:23:59 PM 47.3628 -120.1670 104° East 471 542 29,500 1,259 Climbing FlightAware ADS-B
Sat 02:24:50 PM 47.3345 -120.0100 105° East 473 544 30,500 1,263 Climbing FlightAware ADS-B
Sat 02:24:56 PM 47.3299 -119.9920 110° East 467 537 30,700 1,800 Climbing FlightAware ADS-B
Sat 02:25:10 PM 47.3177 -119.9510 116° Southeast 458 527 31,100 1,680 Climbing FlightAware ADS-B
Sat 02:25:21 PM 47.3071 -119.9220 119° Southeast 453 521 31,400 1,286 Climbing FlightAware ADS-B
Sat 02:25:52 PM 47.2744 -119.8420 121° Southeast 449 517 32,000 1,082 Climbing FlightAware ADS-B
Sat 02:26:22 PM 47.2416 -119.7620 121° Southeast 454 522 32,500 911 Climbing FlightAware ADS-B
Sat 02:27:11 PM 47.1876 -119.6320 121° Southeast 457 526 33,200 886 Climbing FlightAware ADS-B
Sat 02:27:50 PM 47.1444 -119.5270 121° Southeast 461 531 33,800 889 Climbing FlightAware ADS-B
Sat 02:28:32 PM 47.1094 -119.4431 121° Southeast 457 526 34,400 641 Climbing Seattle Center
Sat 02:29:33 PM 47.0428 -119.2850 122° Southeast 458 527 34,900 246 Climbing Seattle Center
Sat 02:30:34 PM 46.9758 -119.1286 122° Southeast 457 526 34,900 49 Level Seattle Center
Sat 02:31:35 PM 46.9100 -118.9719 122° Southeast 456 525 35,000 49 Climbing Seattle Center
Sat 02:32:36 PM 46.8297 -118.7856 122° Southeast 456 525 35,000  Level Seattle Center
Sat 02:38:29 PM 46.4259 -117.8581 122° Southeast 456 525 35,000  Level FlightAware ADS-B
Sat 02:38:53 PM 46.4079 -117.8177 122° Southeast 455 524 35,000  Level FlightAware ADS-B
Sat 02:39:59 PM 46.3389 -117.6624 122° Southeast 455 524 35,000  Level FlightAware ADS-B
Sat 02:40:35 PM 46.2832 -117.5375 122° Southeast 456 525 35,000  Level FlightAware ADS-B
Sat 02:40:58 PM 46.2571 -117.4795 123° Southeast 456 525 35,000  Level FlightAware ADS-B
Sat 02:42:54 PM 46.1227 -117.1837 123° Southeast 457 526 35,000  Level FlightAware ADS-B
Sat 02:43:26 PM 46.0851 -117.1013 123° Southeast 456 525 35,000  Level FlightAware ADS-B
Sat 02:43:55 PM 46.0508 -117.0256 123° Southeast 455 524 35,000  Level FlightAware ADS-B
Sat 02:44:25 PM 46.0161 -116.9491 123° Southeast 455 524 35,000  Level FlightAware ADS-B
Sat 02:44:55 PM 45.9820 -116.8745 123° Southeast 454 522 35,000  Level FlightAware ADS-B
Sat 02:45:25 PM 45.9483 -116.8012 123° Southeast 453 521 35,000  Level FlightAware ADS-B
Sat 02:45:55 PM 45.9442 -116.7922 123° Southeast 453 521 35,000  Level FlightAware ADS-B
Sat 02:46:19 PM 45.8937 -116.6831 123° Southeast 456 525 35,000  Level FlightAware ADS-B
Sat 02:46:50 PM 45.8479 -116.5841 123° Southeast 459 528 35,000  Level FlightAware ADS-B
Sat 02:47:25 PM 45.8086 -116.4994 123° Southeast 460 529 35,000  Level FlightAware ADS-B
Sat 02:47:56 PM 45.7721 -116.4213 123° Southeast 459 528 35,000  Level FlightAware ADS-B
Sat 02:48:25 PM 45.7364 -116.3452 123° Southeast 460 529 35,000  Level FlightAware ADS-B
Sat 02:48:55 PM 45.7009 -116.2694 123° Southeast 460 529 35,000  Level FlightAware ADS-B
Sat 02:49:26 PM 45.6648 -116.1926 123° Southeast 460 529 35,000  Level FlightAware ADS-B
Sat 02:49:55 PM 45.6303 -116.1195 123° Southeast 461 531 35,000  Level FlightAware ADS-B
Sat 02:50:25 PM 45.5997 -116.0547 123° Southeast 462 532 35,000  Level FlightAware ADS-B
Sat 02:50:46 PM 45.5693 -115.9906 123° Southeast 463 533 35,000  Level FlightAware ADS-B
Sat 02:51:53 PM 45.4888 -115.8213 123° Southeast 463 533 35,000  Level FlightAware ADS-B
Sat 02:52:25 PM 45.4500 -115.7400 124° Southeast 465 535 35,000  Level FlightAware ADS-B
Sat 02:52:55 PM 45.4135 -115.6637 124° Southeast 465 535 35,000  Level FlightAware ADS-B
Sat 02:53:25 PM 45.3791 -115.5921 124° Southeast 465 535 35,000  Level FlightAware ADS-B
Sat 02:53:34 PM 45.3704 -115.5740 124° Southeast 464 534 35,000  Level FlightAware ADS-B
Sat 02:54:59 PM 45.2700 -115.3642 124° Southeast 462 532 35,000  Level Seattle Center
Sat 02:55:37 PM 45.2253 -115.2714 124° Southeast 465 535 35,000  Level Salt Lake Center
Sat 02:56:38 PM 45.1511 -115.1206 125° Southeast 465 535 35,000  Level Salt Lake Center
Sat 02:57:39 PM 45.0764 -114.9692 125° Southeast 465 535 35,000  Level Salt Lake Center
Sat 02:58:41 PM 45.0006 -114.8164 125° Southeast 469 540 35,000  Level Salt Lake Center
Sat 02:59:42 PM 44.9258 -114.6664 125° Southeast 469 540 35,000  Level Salt Lake Center
Sat 03:00:44 PM 44.8506 -114.5144 125° Southeast 470 541 35,000  Level Salt Lake Center
Sat 03:01:45 PM 44.7750 -114.3642 125° Southeast 470 541 35,000  Level Salt Lake Center
Sat 03:02:46 PM 44.6842 -114.1833 125° Southeast 470 541 35,000  Level Salt Lake Center
Sat 03:03:48 PM 44.6075 -114.0333 126° Southeast 471 542 35,000  Level Salt Lake Center
Sat 03:04:49 PM 44.5303 -113.8786 125° Southeast 472 543 35,000  Level Salt Lake Center
Sat 03:05:51 PM 44.4572 -113.7367 126° Southeast 471 542 35,000  Level Salt Lake Center
Sat 03:06:52 PM 44.3836 -113.5947 126° Southeast 471 542 35,000  Level Salt Lake Center
Sat 03:07:53 PM 44.3017 -113.4289 125° Southeast 470 541 35,000  Level Salt Lake Center
Sat 03:13:41 PM 43.8409 -112.5587 126° Southeast 471 542 35,000  Level FlightAware ADS-B
Sat 03:15:03 PM 43.7392 -112.3678 126° Southeast 475 547 35,000  Level Salt Lake Center
Sat 03:16:05 PM 43.6636 -112.2281 127° Southeast 476 548 35,000  Level Salt Lake Center
Sat 03:17:06 PM 43.5753 -112.0675 127° Southeast 475 547 35,000  Level Salt Lake Center
Sat 03:18:08 PM 43.5000 -111.9256 126° Southeast 476 548 35,000  Level Salt Lake Center
Sat 03:19:09 PM 43.4131 -111.7678 127° Southeast 469 540 35,000  Level Salt Lake Center
Sat 03:20:10 PM 43.3378 -111.6331 128° Southeast 468 539 35,000  Level Salt Lake Center
Sat 03:21:12 PM 43.2642 -111.4972 127° Southeast 467 537 35,000  Level Salt Lake Center
Sat 03:22:13 PM 43.1778 -111.3414 127° Southeast 464 534 35,000  Level Salt Lake Center
Sat 03:23:15 PM 43.1033 -111.2111 128° Southeast 459 528 35,000  Level Salt Lake Center
Sat 03:24:16 PM 43.0169 -111.0581 128° Southeast 458 527 35,000  Level Salt Lake Center
Sat 03:25:18 PM 42.9422 -110.9264 128° Southeast 458 527 35,000  Level Salt Lake Center
Sat 03:26:19 PM 42.8689 -110.7958 127° Southeast 458 527 35,000  Level Salt Lake Center
Sat 03:27:21 PM 42.7822 -110.6433 128° Southeast 457 526 35,000  Level Salt Lake Center
Sat 03:28:22 PM 42.7014 -110.4992 127° Southeast 457 526 35,000  Level Salt Lake Center
Sat 03:29:23 PM 42.6272 -110.3700 128° Southeast 456 525 35,000  Level Salt Lake Center
Sat 03:30:25 PM 42.5403 -110.2186 128° Southeast 455 524 35,000  Level Salt Lake Center
Sat 03:35:58 PM 42.1057 -109.4773 129° Southeast 454 522 35,000  Level FlightAware ADS-B
Sat 03:36:53 PM 42.0365 -109.3607 129° Southeast 453 521 35,000  Level FlightAware ADS-B
Sat 03:37:58 PM 41.9528 -109.2203 129° Southeast 450 518 35,000  Level FlightAware ADS-B
Sat 03:39:53 PM 41.7961 -108.9592 129° Southeast 447 514 35,000  Level FlightAware ADS-B
Sat 03:41:06 PM 41.7016 -108.8028 129° Southeast 447 514 35,000  Level FlightAware ADS-B
Sat 03:41:56 PM 41.6642 -108.7410 129° Southeast 447 514 35,000  Level FlightAware ADS-B
Sat 03:43:12 PM 41.5902 -108.6198 129° Southeast 450 518 35,000  Level FlightAware ADS-B
Sat 03:48:29 PM 41.2257 -107.7730 117° Southeast 446 513 35,000  Level FlightAware ADS-B
Sat 03:49:33 PM 41.1642 -107.6129 117° Southeast 447 514 35,000  Level FlightAware ADS-B
Sat 03:50:37 PM 41.1037 -107.4566 117° Southeast 450 518 35,000  Level FlightAware ADS-B
Sat 03:51:33 PM 41.0500 -107.3182 117° Southeast 451 519 35,000  Level FlightAware ADS-B
Sat 03:52:38 PM 40.9890 -107.1618 117° Southeast 443 510 35,000  Level FlightAware ADS-B
Sat 03:53:22 PM 40.9470 -107.0551 117° Southeast 442 509 35,000  Level FlightAware ADS-B (KEIK)
Sat 03:53:57 PM 40.9153 -106.9744 118° Southeast 442 509 35,000  Level FlightAware ADS-B (KEIK)
Sat 03:54:33 PM 40.8809 -106.8869 118° Southeast 442 509 35,000  Level FlightAware ADS-B (KEIK)
Sat 03:55:05 PM 40.8555 -106.8226 118° Southeast 442 509 35,000  Level FlightAware ADS-B (KEIK)
Sat 03:55:45 PM 40.8124 -106.7140 118° Southeast 442 509 35,000  Level FlightAware ADS-B (KEIK)
Sat 03:56:26 PM 40.7754 -106.6210 118° Southeast 442 509 35,000  Level FlightAware ADS-B (KEIK)
Sat 03:56:57 PM 40.7533 -106.5655 118° Southeast 442 509 35,000  Level FlightAware ADS-B (KEIK)
Sat 03:57:27 PM 40.7183 -106.4782 118° Southeast 443 510 35,000 -441 Level FlightAware ADS-B (KEIK)
Sat 03:58:05 PM 40.6801 -106.3832 118° Southeast 434 499 34,500 -1,667 Descending FlightAware ADS-B (KEIK)
Sat 03:58:39 PM 40.6514 -106.3116 118° Southeast 441 507 33,000 -2,605 Descending FlightAware ADS-B (KEIK)
Sat 03:59:21 PM 40.6073 -106.2025 118° Southeast 441 507 31,200 -2,351 Descending FlightAware ADS-B (KEIK)
Sat 03:59:53 PM 40.5773 -106.1284 118° Southeast 436 502 30,100 -2,113 Descending FlightAware ADS-B (KEIK)
Sat 04:00:32 PM 40.5411 -106.0389 118° Southeast 426 490 28,700 -2,067 Descending FlightAware ADS-B (KEIK)
Sat 04:01:23 PM 40.4963 -105.9287 118° Southeast 416 479 27,000 -1,922 Descending FlightAware ADS-B (KEIK)
Sat 04:02:15 PM 40.4479 -105.8106 118° Southeast 407 468 25,400 -1,857 Descending FlightAware ADS-B (KEIK)
Sat 04:02:47 PM 40.4203 -105.7432 118° Southeast 402 463 24,400 -1,895 Descending FlightAware ADS-B
Sat 04:02:53 PM 40.4160 -105.7327 118° Southeast 402 463 24,200 -1,500 Descending FlightAware ADS-B
Sat 04:03:27 PM 40.3917 -105.6530 106° East 388 447 23,400 -1,662 Descending FlightAware ADS-B (KEIK)
Sat 04:03:58 PM 40.3813 -105.5907 102° East 386 444 22,400 -1,558 Descending FlightAware ADS-B (KEIK)
Sat 04:04:44 PM 40.3651 -105.4899 102° East 374 430 21,400 -1,091 Descending FlightAware ADS-B (KEIK)
Sat 04:05:04 PM 40.3520 -105.4357 116° Southeast 355 409 21,200 -973 Descending FlightAware ADS-B (KEIK)
Sat 04:05:21 PM 40.3369 -105.4054 129° Southeast 350 403 20,800 -1,529 Descending FlightAware ADS-B
Sat 04:05:55 PM 40.3027 -105.3520 130° Southeast 348 400 19,900 -1,594 Descending FlightAware ADS-B (KEIK)
Sat 04:06:25 PM 40.2726 -105.3047 130° Southeast 347 399 19,100 -1,500 Descending FlightAware ADS-B (KEIK)
Sat 04:07:03 PM 40.2368 -105.2485 130° Southeast 342 394 18,200 -1,565 Descending FlightAware ADS-B
Sat 04:07:34 PM 40.2060 -105.2004 130° Southeast 344 396 17,300 -1,279 Descending FlightAware ADS-B
Sat 04:08:04 PM 40.1740 -105.1508 130° Southeast 334 384 16,900 -400 Descending FlightAware ADS-B
Sat 04:08:34 PM 40.1432 -105.1023 130° Southeast 329 379 16,900  Level FlightAware ADS-B
Sat 04:09:04 PM 40.1139 -105.0566 130° Southeast 327 376 16,900 -771 Level FlightAware ADS-B
Sat 04:09:44 PM 40.0734 -104.9935 130° Southeast 323 372 16,000 -1,371 Descending FlightAware ADS-B
Sat 04:10:14 PM 40.0468 -104.9520 130° Southeast 320 368 15,300 -1,406 Descending FlightAware ADS-B
Sat 04:10:48 PM 40.0145 -104.9022 130° Southeast 319 367 14,500 -1,500 Descending FlightAware ADS-B
Sat 04:11:22 PM 39.9853 -104.8568 130° Southeast 317 365 13,600 -1,574 Descending FlightAware ADS-B (KEIK)
Sat 04:11:49 PM 39.9549 -104.8151 146° Southeast 309 356 12,900 -1,429 Descending FlightAware ADS-B
Sat 04:12:04 PM 39.9347 -104.8058 169° South 300 345 12,600 -1,364 Descending FlightAware ADS-B
Sat 04:12:11 PM 39.9290 -104.8051 180° South 298 343 12,400 -1,364 Descending FlightAware ADS-B
Sat 04:12:48 PM 39.8728 -104.8067 181° South 293 337 11,600 -1,075 Descending FlightAware ADS-B (KEIK)
Sat 04:13:18 PM 39.8353 -104.8077 181° South 279 321 11,200 -700 Descending FlightAware ADS-B
Sat 04:13:48 PM 39.7951 -104.8088 181° South 253 291 10,900 -295 Descending FlightAware ADS-B (KEIK)
Sat 04:14:19 PM 39.7661 -104.8094 181° South 218 251 10,900  Level FlightAware ADS-B
Sat 04:14:50 PM 39.7377 -104.8101 182° South 210 242 10,900 -197 Level FlightAware ADS-B
Sat 04:15:20 PM 39.7065 -104.8111 181° South 211 243 10,700 -800 Descending FlightAware ADS-B
Sat 04:15:50 PM 39.6748 -104.8101 164° South 213 245 10,100 -1,067 Descending FlightAware ADS-B (KEIK)
Sat 04:16:05 PM 39.6640 -104.8023 139° Southeast 209 241 9,900 -1,286 Descending FlightAware ADS-B
Sat 04:16:18 PM 39.6564 -104.7843 108° East 211 243 9,500 -1,615 Descending FlightAware ADS-B (KEIK)
Sat 04:16:31 PM 39.6566 -104.7705 84° East 212 244 9,200 -1,412 Descending FlightAware ADS-B (KEIK)
Sat 04:16:35 PM 39.6580 -104.7652 70° East 216 249 9,100 -1,333 Descending FlightAware ADS-B
Sat 04:16:40 PM 39.6619 -104.7567 56° Northeast 217 250 9,000 -1,286 Descending FlightAware ADS-B (KEIK)
Sat 04:16:49 PM 39.6667 -104.7502 42° Northeast 222 255 8,800 -1,000 Descending FlightAware ADS-B
Sat 04:16:52 PM 39.6672 -104.7499 33° Northeast 223 257 8,800 -1,200 Level FlightAware ADS-B (KEIK)
Sat 04:17:19 PM 39.6942 -104.7315 27° Northeast 212 244 8,200 -1,286 Descending FlightAware ADS-B
Sat 04:17:34 PM 39.7073 -104.7229 26° Northeast 213 245 7,900 -1,138 Descending FlightAware ADS-B
Sat 04:18:17 PM 39.7417 -104.7002 27° Northeast 196 226 7,100 -1,034 Descending FlightAware ADS-B (KEIK)
Sat 04:18:32 PM 39.7529 -104.6928 26° Northeast 189 217 6,900 -667 Descending FlightAware ADS-B
Sat 04:18:44 PM 39.7646 -104.6879 North 189 217 6,800  Descending FlightAware ADS-B
Sat 04:18:50 PM 39.7695 -104.6875 North 191 220 6,900  Climbing FlightAware ADS-B (KEIK)
Sat 04:18:59 PM 39.7781 -104.6877 359° North 192 221 6,800 -800 Descending FlightAware ADS-B (KEIK)
Sat 04:19:20 PM 39.7975 -104.6882 359° North 185 213 6,500 -938 Descending FlightAware ADS-B (KEIK)
Sat 04:19:31 PM 39.8004 -104.6882 North 178 205 6,300 -923 Descending FlightAware ADS-B
Sat 04:19:46 PM 39.8176 -104.6879 North 172 198 6,100 -800 Descending FlightAware ADS-B
Sat 04:20:01 PM 39.8308 -104.6875 North 172 198 5,900 -882 Descending FlightAware ADS-B (KEIK)
Sat 04:20:20 PM 39.8436 -104.6874 North 176 203 5,600 -857 Descending FlightAware ADS-B
Sat 04:20:36 PM 39.8572 -104.6872 North 173 199 5,400 -545 Descending FlightAware ADS-B
Sat 04:21:04 PM 39.8794 -104.6870 360° North 125 144 5,200 -300 Descending FlightAware ADS-B (KEIK)
Sat 04:21:16 PM 39.8840 -104.6870 North 78 90 5,200  Level FlightAware ADS-B

Login

Don't have an account? Register now (free) for customized features, flight alerts, and more!